メインページ
METAR-TAF:

METAR-TAF

空港 :

エルサルバドル国際空港

エルサルバドル, エルサルバドル

緯度: 13-26N, 経度: 089-03W, 海抜: 25m

現時点の気象観測

当レポートは1時間0分前の06:50(UTC)に作成
東/北東の風 3kt
気温 26°C
湿度 89%
気圧 1011 hPa
視程10km以上
1,500メートル以下は雲なし、積乱雲なし

METAR: MSLP 190650Z 06003KT CAVOK 26/24 Q1011 A2986 NOSIG

時間: 01:50 (07:50 UTC)

予報

当レポートは4時間25分前の03:25(UTC)に作成
予報は19日の 06時(UTC)から 20日の 06時(UTC)まで有効
東/北東の風 3kt
視程10km以上
高度6000ftの千切れ雲あり
19日の 1200時(UTC)から
視程10km以上
1,500メートル以下は雲なし、積乱雲なし
19日の 1800時(UTC)から
南/南西の風 8kt
視程10km以上
高度3700ftの雲はほとんどない
高度4000ftの雲はほとんどない, 積乱雲.
20日の 0000時(UTC)から
変向風 3kt
高度4000ftの雲はほとんどない, 積乱雲.
高度7000ftの雲は散在している

TAF: MSLP 190325Z 1906/2006 07003KT 9999 BKN060 TX34/1918Z TN24/1912Z FM191200 CAVOK FM191800 21008KT 9999 FEW037 FEW040CB FM200000 VRB03KT FEW040CB SCT070

4,000以上の空港の気象観測と天気予報(METAR報とTAF報)

利用可能な観測所は地図上に黄色い丸と赤い丸で示す。

丸の上にカーソルを重ねると観測所名を参照できる。

次にクリックすると気象観測と天気予報を参照できる。

マップの切り替え:黒色「×」印の緑ボタンをクリックして拡大、「-」印の緑ボタンをクリックして縮小、緑色の三角印をクリックして隣りの地図に切り替え


METAR-TAF: